createdAt,value
2022-11-12T00:02:21.473Z,21.4
2022-11-12T00:08:00.140Z,21.4
2022-11-12T00:13:37.086Z,21.4
2022-11-12T00:19:14.554Z,21.4
2022-11-12T00:24:52.932Z,21.3
2022-11-12T00:30:33.633Z,21.4
2022-11-12T00:36:13.424Z,21.4
2022-11-12T00:41:52.601Z,21.4
2022-11-12T00:47:14.169Z,21.4
2022-11-12T00:52:36.092Z,21.4
2022-11-12T00:57:59.827Z,21.4
2022-11-12T01:03:40.885Z,21.4
2022-11-12T01:09:19.708Z,21.4
2022-11-12T01:14:46.288Z,21.4
2022-11-12T01:20:08.275Z,21.3
2022-11-12T01:25:45.889Z,21.4
2022-11-12T01:31:24.897Z,21.4
2022-11-12T01:36:46.404Z,21.4
2022-11-12T01:42:10.359Z,21.4
2022-11-12T01:47:49.026Z,21.4
2022-11-12T01:53:32.728Z,21.4
2022-11-12T01:59:14.772Z,21.4
2022-11-12T02:04:53.389Z,21.4
2022-11-12T02:10:30.376Z,21.4
2022-11-12T02:15:53.336Z,21.4
2022-11-12T02:21:31.912Z,21.4
2022-11-12T02:27:07.832Z,21.4
2022-11-12T02:32:29.934Z,21.4
2022-11-12T02:37:53.396Z,21.4
2022-11-12T02:43:30.848Z,21.4
2022-11-12T02:49:08.443Z,21.4
2022-11-12T02:54:31.974Z,21.4
2022-11-12T02:59:53.805Z,21.4
2022-11-12T03:05:22.273Z,21.4
2022-11-12T03:10:46.078Z,21.4
2022-11-12T03:16:23.032Z,21.4
2022-11-12T03:21:44.696Z,21.4
2022-11-12T03:27:25.803Z,21.4
2022-11-12T03:33:02.060Z,21.4
2022-11-12T03:38:38.485Z,21.4
2022-11-12T03:44:01.305Z,21.4
2022-11-12T03:49:07.648Z,21.4
2022-11-12T03:54:44.416Z,21.4
2022-11-12T04:00:07.806Z,21.4
2022-11-12T04:05:13.550Z,21.4
2022-11-12T04:10:20.739Z,21.4
2022-11-12T04:15:44.234Z,21.4
2022-11-12T04:20:34.911Z,21.4
2022-11-12T04:25:56.728Z,21.4
2022-11-12T04:31:03.562Z,21.4
2022-11-12T04:36:25.465Z,21.4
2022-11-12T04:41:37.554Z,21.4
2022-11-12T04:47:00.459Z,21.4
2022-11-12T04:52:23.080Z,21.4
2022-11-12T04:57:45.513Z,21.4
2022-11-12T05:03:08.251Z,21.4
2022-11-12T05:08:45.545Z,21.4
2022-11-12T05:14:23.983Z,21.4
2022-11-12T05:20:02.593Z,21.4
2022-11-12T05:26:36.405Z,21.4
2022-11-12T05:32:16.191Z,21.4
2022-11-12T05:37:56.989Z,21.4
2022-11-12T05:44:01.203Z,21.4
2022-11-12T05:49:46.320Z,21.3
2022-11-12T05:55:53.377Z,21.2
2022-11-12T06:01:32.048Z,21
2022-11-12T06:06:54.714Z,20.9
2022-11-12T06:12:17.546Z,20.8
2022-11-12T06:17:39.486Z,20.8
2022-11-12T06:23:01.715Z,20.7
2022-11-12T06:28:31.396Z,20.7
2022-11-12T06:33:53.921Z,20.6
2022-11-12T06:39:21.505Z,20.7
2022-11-12T06:44:28.277Z,20.8
2022-11-12T06:49:51.209Z,29.1
2022-11-12T06:55:29.421Z,26.8
2022-11-12T07:00:51.962Z,25.5
2022-11-12T07:06:33.573Z,24.8
2022-11-12T07:12:15.187Z,27.4
2022-11-12T07:17:43.680Z,29.9
2022-11-12T07:23:11.068Z,30
2022-11-12T07:28:37.473Z,29.8
2022-11-12T07:34:41.797Z,29.8
2022-11-12T07:40:07.226Z,29.9
2022-11-12T07:45:45.800Z,30
2022-11-12T07:51:31.583Z,29.9
2022-11-12T07:57:09.659Z,29.6
2022-11-12T08:02:53.941Z,29.3
2022-11-12T08:08:41.738Z,28.9
2022-11-12T08:14:20.008Z,28.5
2022-11-12T08:19:47.032Z,27.3
2022-11-12T08:25:25.520Z,26.2
2022-11-12T08:31:04.450Z,25.4
2022-11-12T08:36:30.077Z,24.9
2022-11-12T08:42:09.485Z,24.6
2022-11-12T08:47:49.480Z,24.3
2022-11-12T08:53:28.790Z,23.9
2022-11-12T08:59:07.743Z,23.7
2022-11-12T09:04:46.035Z,23.5
2022-11-12T09:10:25.200Z,23.3
2022-11-12T09:15:54.843Z,23.2
2022-11-12T09:21:38.609Z,23.1
2022-11-12T09:27:16.916Z,22.9
2022-11-12T09:32:56.262Z,22.8
2022-11-12T09:38:35.605Z,22.8
2022-11-12T09:44:15.157Z,22.7
2022-11-12T09:50:25.314Z,22.6
2022-11-12T09:56:03.528Z,22.5
2022-11-12T10:01:41.143Z,22.4
2022-11-12T10:07:25.259Z,22.4
2022-11-12T10:13:09.700Z,22.4
2022-11-12T10:18:48.275Z,22.3
2022-11-12T10:24:26.801Z,22.3
2022-11-12T10:30:05.410Z,22.2
2022-11-12T10:35:43.164Z,22.2
2022-11-12T10:41:27.252Z,22.2
2022-11-12T10:47:04.499Z,22.1
2022-11-12T10:52:43.218Z,22.1
2022-11-12T10:58:21.967Z,22.1
2022-11-12T11:04:05.694Z,22.1
2022-11-12T11:09:44.619Z,22.1
2022-11-12T11:15:07.939Z,22
2022-11-12T11:20:31.083Z,22
2022-11-12T11:25:57.067Z,22
2022-11-12T11:31:36.167Z,21.8
2022-11-12T11:37:14.055Z,21.5
2022-11-12T11:42:52.093Z,21.3
2022-11-12T11:48:50.937Z,21.2
2022-11-12T11:54:34.016Z,21.1
2022-11-12T12:00:12.066Z,21
2022-11-12T12:05:50.629Z,20.9
2022-11-12T12:11:58.097Z,20.9
2022-11-12T12:17:36.374Z,20.9
2022-11-12T12:23:15.911Z,20.8
2022-11-12T12:28:53.613Z,20.8
2022-11-12T12:34:36.676Z,20.8
2022-11-12T12:40:20.940Z,20.6
2022-11-12T12:45:59.196Z,20.6
2022-11-12T12:51:21.426Z,20.5
2022-11-12T12:57:01.451Z,20.4
2022-11-12T13:02:29.176Z,20.4
2022-11-12T13:08:07.564Z,20.4
2022-11-12T13:13:32.552Z,20.4
2022-11-12T13:19:09.915Z,20.3
2022-11-12T13:24:55.234Z,20.3
2022-11-12T13:30:18.646Z,20.2
2022-11-12T13:36:02.751Z,20.2
2022-11-12T13:41:29.892Z,20.1
2022-11-12T13:47:09.470Z,20.1
2022-11-12T13:52:38.292Z,20.1
2022-11-12T13:58:04.767Z,20.1
2022-11-12T14:03:47.818Z,20.1
2022-11-12T14:09:26.664Z,20
2022-11-12T14:15:04.186Z,20
2022-11-12T14:20:47.136Z,20
2022-11-12T14:26:32.228Z,20
2022-11-12T14:32:12.691Z,19.9
2022-11-12T14:37:55.003Z,19.9
2022-11-12T14:43:36.182Z,19.9
2022-11-12T14:49:33.337Z,19.9
2022-11-12T14:55:20.117Z,19.9
2022-11-12T15:01:05.522Z,19.9
2022-11-12T15:07:46.488Z,19.9
2022-11-12T15:13:17.224Z,19.9
2022-11-12T15:18:39.525Z,19.9
2022-11-12T15:24:23.764Z,19.9
2022-11-12T15:29:47.435Z,19.9
2022-11-12T15:35:25.478Z,19.9
2022-11-12T15:41:03.910Z,19.9
2022-11-12T15:45:56.197Z,19.9
2022-11-12T15:51:25.377Z,19.9
2022-11-12T15:57:09.627Z,19.8
2022-11-12T16:02:48.194Z,19.8
2022-11-12T16:08:11.296Z,19.8
2022-11-12T16:13:32.880Z,19.8
2022-11-12T16:18:56.518Z,19.8
2022-11-12T16:24:35.818Z,19.8
2022-11-12T16:29:58.444Z,19.8
2022-11-12T16:35:37.384Z,19.5
2022-11-12T16:41:15.798Z,19.3
2022-11-12T16:46:53.429Z,19.2
2022-11-12T16:52:31.409Z,19.1
2022-11-12T16:58:13.275Z,19.1
2022-11-12T17:03:41.236Z,19.1
2022-11-12T17:09:07.903Z,19
2022-11-12T17:14:30.771Z,19
2022-11-12T17:20:08.741Z,19
2022-11-12T17:25:38.078Z,19
2022-11-12T17:30:48.879Z,18.9
2022-11-12T17:36:26.150Z,19
2022-11-12T17:41:35.115Z,19
2022-11-12T17:46:57.402Z,19
2022-11-12T17:52:18.848Z,19
2022-11-12T17:57:28.000Z,19
2022-11-12T18:02:50.724Z,19
2022-11-12T18:08:13.690Z,19.1
2022-11-12T18:13:42.681Z,19.1
2022-11-12T18:18:50.796Z,19.1
2022-11-12T18:24:13.287Z,19.1
2022-11-12T18:29:36.182Z,19.1
2022-11-12T18:34:59.294Z,19.1
2022-11-12T18:40:21.709Z,19.1
2022-11-12T18:45:49.002Z,19.1
2022-11-12T18:50:59.395Z,19.1
2022-11-12T18:56:05.987Z,19.1
2022-11-12T19:01:29.685Z,19.2
2022-11-12T19:12:11.583Z,19.2
2022-11-12T19:17:27.088Z,19.3
2022-11-12T19:23:07.006Z,19.3
2022-11-12T19:28:28.871Z,19.3
2022-11-12T19:33:36.324Z,19.3
2022-11-12T19:39:13.653Z,19.3
2022-11-12T19:44:42.565Z,19.3
2022-11-12T19:50:05.999Z,19.3
2022-11-12T19:55:15.960Z,19.4
2022-11-12T20:01:00.275Z,19.4
2022-11-12T20:06:39.098Z,19.4
2022-11-12T20:12:01.982Z,19.4
2022-11-12T20:17:47.138Z,19.4
2022-11-12T20:23:26.510Z,19.5
2022-11-12T20:29:05.700Z,19.5
2022-11-12T20:34:32.863Z,19.5
2022-11-12T20:39:35.149Z,19.6
2022-11-12T20:44:58.033Z,19.6
2022-11-12T20:50:06.514Z,19.6
2022-11-12T20:55:57.293Z,19.6
2022-11-12T21:01:40.525Z,19.6
2022-11-12T21:07:05.405Z,19.6
2022-11-12T21:12:45.021Z,19.6
2022-11-12T21:17:58.688Z,19.6
2022-11-12T21:23:37.293Z,19.6
2022-11-12T21:29:18.879Z,19.6
2022-11-12T21:34:41.847Z,19.6
2022-11-12T21:40:20.605Z,19.5
2022-11-12T21:45:43.486Z,19.5
2022-11-12T21:51:25.096Z,19.5
2022-11-12T21:57:03.153Z,19.5
2022-11-12T22:03:10.771Z,19.4
2022-11-12T22:08:18.214Z,19.4
2022-11-12T22:14:30.634Z,19.4
2022-11-12T22:19:56.252Z,19.4
2022-11-12T22:25:21.122Z,19.4
2022-11-12T22:30:45.936Z,19.4
2022-11-12T22:36:28.625Z,19.4
2022-11-12T22:42:08.936Z,19.4
2022-11-12T22:47:47.114Z,19.4
2022-11-12T22:53:24.968Z,19.4
2022-11-12T22:59:03.192Z,19.4
2022-11-12T23:04:43.015Z,19.4
2022-11-12T23:10:21.938Z,19.3
2022-11-12T23:15:33.170Z,19.4
2022-11-12T23:20:55.590Z,19.4
2022-11-12T23:26:23.335Z,19.4
2022-11-12T23:32:00.917Z,19.4
2022-11-12T23:37:39.195Z,19.3
2022-11-12T23:43:21.684Z,19.4
2022-11-12T23:49:00.410Z,19.3
2022-11-12T23:54:22.319Z,19.3
2022-11-12T23:59:29.871Z,19.3
